createdAt,value
2023-03-14T00:04:43.453Z,97656.77
2023-03-14T00:11:20.064Z,97652.59
2023-03-14T00:17:24.034Z,97647.34
2023-03-14T00:23:29.133Z,97643.59
2023-03-14T00:29:35.960Z,97636.44
2023-03-14T00:36:13.670Z,97629.39
2023-03-14T00:42:25.711Z,97607.70
2023-03-14T00:48:29.156Z,97595.55
2023-03-14T00:54:34.850Z,97582.30
2023-03-14T01:00:41.484Z,97561.13
2023-03-14T01:06:46.001Z,97545.42
2023-03-14T01:12:55.984Z,97526.98
2023-03-14T01:19:30.833Z,97500.83
2023-03-14T01:25:55.201Z,97484.41
2023-03-14T01:31:59.105Z,97480.63
2023-03-14T01:38:03.406Z,97468.36
2023-03-14T01:44:11.685Z,97465.48
2023-03-14T01:50:21.855Z,97477.98
2023-03-14T01:56:27.114Z,97467.41
2023-03-14T02:02:32.359Z,97454.25
2023-03-14T02:08:38.377Z,97434.77
2023-03-14T02:14:48.908Z,97419.63
2023-03-14T02:21:19.196Z,97411.51
2023-03-14T02:27:22.811Z,97388.86
2023-03-14T02:33:26.297Z,97373.26
2023-03-14T02:39:42.826Z,97352.89
2023-03-14T02:45:48.470Z,97338.63
2023-03-14T02:51:53.752Z,97338.69
2023-03-14T02:57:56.853Z,97339.52
2023-03-14T03:03:59.821Z,97323.40
2023-03-14T03:10:03.572Z,97318.15
2023-03-14T03:16:06.989Z,97319.37
2023-03-14T03:22:11.654Z,97316.54
2023-03-14T03:28:17.198Z,97303.52
2023-03-14T03:34:20.996Z,97300.30
2023-03-14T03:40:27.642Z,97291.70
2023-03-14T03:46:31.849Z,97290.73
2023-03-14T03:52:34.971Z,97286.27
2023-03-14T03:58:39.862Z,97285.30
2023-03-14T04:05:23.108Z,97307.91
2023-03-14T04:13:10.652Z,97312.92
2023-03-14T04:19:21.929Z,97317.34
2023-03-14T04:25:26.730Z,97326.38
2023-03-14T04:31:33.211Z,97339.42
2023-03-14T04:37:36.718Z,97344.65
2023-03-14T04:43:44.409Z,97346.09
2023-03-14T04:49:50.036Z,97350.90
2023-03-14T04:55:55.966Z,97365.39
2023-03-14T05:02:01.122Z,97377.26
2023-03-14T05:08:27.477Z,97376.38
2023-03-14T05:14:53.768Z,97381.76
2023-03-14T05:21:09.782Z,97379.92
2023-03-14T05:27:48.376Z,97367.38
2023-03-14T05:34:09.642Z,97357.48
2023-03-14T05:40:21.429Z,97343.08
2023-03-14T05:46:37.065Z,97327.59
2023-03-14T05:52:52.017Z,97336.29
2023-03-14T05:59:03.204Z,97322.26
2023-03-14T06:05:18.085Z,97316.84
2023-03-14T06:11:21.443Z,97334.56
2023-03-14T06:17:24.474Z,97320.43
2023-03-14T06:23:33.043Z,97314.45
2023-03-14T06:29:36.240Z,97318.77
2023-03-14T06:36:02.362Z,97305.91
2023-03-14T06:42:06.138Z,97289.11
2023-03-14T06:48:09.146Z,97286.28
2023-03-14T06:54:15.684Z,97281.91
2023-03-14T07:00:18.995Z,97275.55
2023-03-14T07:06:22.715Z,97267.60
2023-03-14T07:12:25.738Z,97259.05
2023-03-14T07:18:28.749Z,97250.73
2023-03-14T07:24:32.267Z,97246.79
2023-03-14T07:30:36.669Z,97250.41
2023-03-14T07:36:41.775Z,97247.19
2023-03-14T07:42:44.859Z,97240.63
2023-03-14T07:48:53.164Z,97235.86
2023-03-14T07:54:59.470Z,97236.96
2023-03-14T08:01:02.418Z,97253.45
2023-03-14T08:07:05.375Z,97258.73
2023-03-14T08:13:08.448Z,97266.54
2023-03-14T08:19:11.588Z,97270.51
2023-03-14T08:25:14.829Z,97269.65
2023-03-14T08:31:18.422Z,97269.85
2023-03-14T08:37:26.797Z,97266.86
2023-03-14T08:43:30.637Z,97252.62
2023-03-14T08:49:33.687Z,97254.09
2023-03-14T08:55:36.894Z,97248.48
2023-03-14T09:01:39.746Z,97254.21
2023-03-14T09:07:42.966Z,97264.18
2023-03-14T09:13:45.848Z,97282.13
2023-03-14T09:19:48.861Z,97285.30
2023-03-14T09:25:58.832Z,97272.14
2023-03-14T09:32:01.878Z,97283.92
2023-03-14T09:38:06.348Z,97293.75
2023-03-14T09:44:16.228Z,97288.66
2023-03-14T09:50:19.246Z,97308.14
2023-03-14T09:56:25.833Z,97307.67
2023-03-14T10:02:36.682Z,97314.52
2023-03-14T10:08:41.853Z,97316.30
2023-03-14T10:14:53.440Z,97327.21
2023-03-14T10:21:10.496Z,97333.27
2023-03-14T10:27:29.488Z,97330.57
2023-03-14T10:33:38.024Z,97329.77
2023-03-14T10:39:49.075Z,97326.30
2023-03-14T10:45:59.065Z,97325.33
2023-03-14T10:52:14.538Z,97331.02
2023-03-14T10:58:33.074Z,97335.13
2023-03-14T11:04:57.800Z,97325.77
2023-03-14T11:11:12.466Z,97313.46
2023-03-14T11:17:54.218Z,97311.63
2023-03-14T11:24:14.935Z,97308.65
2023-03-14T11:30:54.313Z,97304.91
2023-03-14T11:37:20.013Z,97300.08
2023-03-14T11:43:29.724Z,97292.20
2023-03-14T11:49:45.187Z,97293.77
2023-03-14T11:55:48.203Z,97290.05
2023-03-14T12:02:01.832Z,97299.95
2023-03-14T12:08:10.737Z,97304.57
2023-03-14T12:14:34.690Z,97298.77
2023-03-14T12:20:40.100Z,97294.53
2023-03-14T12:26:57.225Z,97287.31
2023-03-14T12:33:21.328Z,97272.59
2023-03-14T12:39:44.893Z,97263.95
2023-03-14T12:46:10.850Z,97253.59
2023-03-14T12:52:21.271Z,97252.73
2023-03-14T12:58:27.231Z,97255.67
2023-03-14T13:04:39.371Z,97255.48
2023-03-14T13:10:47.324Z,97259.35
2023-03-14T13:16:50.605Z,97267.19
2023-03-14T13:22:53.552Z,97278.44
2023-03-14T13:28:56.640Z,97284.85
2023-03-14T13:35:02.810Z,97289.23
2023-03-14T13:41:12.460Z,97289.66
2023-03-14T13:47:20.459Z,97296.34
2023-03-14T13:53:23.697Z,97306.46
2023-03-14T13:59:29.367Z,97315.13
2023-03-14T14:05:33.234Z,97320.11
2023-03-14T14:11:48.455Z,97328.23
2023-03-14T14:17:57.002Z,97334.94
2023-03-14T14:24:01.369Z,97350.00
2023-03-14T14:30:19.678Z,97334.07
2023-03-14T14:36:40.525Z,97330.43
2023-03-14T14:42:43.614Z,97335.17
2023-03-14T14:48:50.208Z,97345.25
2023-03-14T14:54:58.397Z,97341.15
2023-03-14T15:01:19.347Z,97344.91
2023-03-14T15:07:22.443Z,97341.14
2023-03-14T15:13:25.556Z,97351.59
2023-03-14T15:19:29.962Z,97363.45
2023-03-14T15:25:54.485Z,97352.83
2023-03-14T15:31:57.414Z,97354.45
2023-03-14T15:38:00.458Z,97357.53
2023-03-14T15:44:03.766Z,97371.25
2023-03-14T15:50:11.941Z,97379.13
2023-03-14T15:56:18.674Z,97385.52
2023-03-14T16:02:21.982Z,97383.20
2023-03-14T16:08:26.756Z,97383.28
2023-03-14T16:14:29.879Z,97384.75
2023-03-14T16:20:45.528Z,97388.23
2023-03-14T16:26:50.717Z,97395.96
2023-03-14T16:32:54.094Z,97398.27
2023-03-14T16:38:57.100Z,97396.17
2023-03-14T16:45:06.160Z,97386.92
2023-03-14T16:51:16.532Z,97389.05
2023-03-14T16:57:21.041Z,97397.36
2023-03-14T17:03:24.119Z,97390.83
2023-03-14T17:09:28.665Z,97371.65
2023-03-14T17:15:31.612Z,97371.14
2023-03-14T17:21:34.554Z,97356.70
2023-03-14T17:27:37.824Z,97317.14
2023-03-14T17:34:09.319Z,97303.09
2023-03-14T17:40:14.246Z,97287.53
2023-03-14T17:46:17.747Z,97295.97
2023-03-14T17:52:20.955Z,97337.37
2023-03-14T17:58:24.212Z,97349.91
2023-03-14T18:04:27.317Z,97349.21
2023-03-14T18:10:30.755Z,97353.96
2023-03-14T18:16:35.274Z,97359.54
2023-03-14T18:22:42.171Z,97366.08
2023-03-14T18:28:47.379Z,97370.34
2023-03-14T18:34:55.001Z,97369.95
2023-03-14T18:41:07.627Z,97374.29
2023-03-14T18:47:10.632Z,97376.95
2023-03-14T18:53:14.207Z,97386.72
2023-03-14T18:59:17.423Z,97391.05
2023-03-14T19:05:21.948Z,97397.20
2023-03-14T19:11:29.195Z,97403.89
2023-03-14T19:49:57.544Z,97437.34
2023-03-14T19:56:02.535Z,97445.27
2023-03-14T20:02:04.478Z,97449.84
2023-03-14T20:08:07.055Z,97446.16
2023-03-14T20:14:14.384Z,97446.91
2023-03-14T20:20:18.116Z,97451.20
2023-03-14T20:26:20.232Z,97466.88
2023-03-14T20:32:22.957Z,97471.40
2023-03-14T20:38:36.137Z,97479.54
2023-03-14T20:44:39.495Z,97477.90
2023-03-14T20:50:41.288Z,97478.91
2023-03-14T20:56:45.688Z,97473.20
2023-03-14T21:02:47.400Z,97479.02
2023-03-14T21:08:49.270Z,97477.94
2023-03-14T21:14:56.872Z,97479.30
2023-03-14T21:21:05.401Z,97493.91
2023-03-14T21:27:09.664Z,97493.69
2023-03-14T21:33:31.747Z,97495.34
2023-03-14T21:39:41.478Z,97493.27
2023-03-14T21:45:47.576Z,97494.77
2023-03-14T21:51:51.864Z,97501.34
2023-03-14T21:57:54.900Z,97515.85
2023-03-14T22:03:57.176Z,97524.87
2023-03-14T22:09:59.792Z,97533.52
2023-03-14T22:16:05.190Z,97541.57
2023-03-14T22:22:09.802Z,97552.11
2023-03-14T22:28:12.270Z,97561.35
2023-03-14T22:34:14.714Z,97566.45
2023-03-14T22:40:19.751Z,97569.11
2023-03-14T22:46:25.476Z,97572.09
2023-03-14T22:52:31.121Z,97583.17
2023-03-14T22:58:34.339Z,97571.16
2023-03-14T23:04:35.965Z,97575.34
2023-03-14T23:10:37.919Z,97583.08
2023-03-14T23:16:41.199Z,97595.09
2023-03-14T23:22:43.033Z,97598.98
2023-03-14T23:28:44.764Z,97602.33
2023-03-14T23:34:46.296Z,97618.23
2023-03-14T23:40:51.640Z,97628.38
2023-03-14T23:46:56.097Z,97639.46
2023-03-14T23:52:57.979Z,97662.96
2023-03-14T23:58:59.781Z,97677.70
